createdAt,value
2022-08-19T00:00:11.236Z,71.60
2022-08-19T00:02:39.143Z,71.70
2022-08-19T00:05:20.592Z,71.50
2022-08-19T00:07:49.528Z,71.50
2022-08-19T00:10:19.431Z,71.60
2022-08-19T00:12:47.388Z,71.50
2022-08-19T00:15:19.864Z,71.60
2022-08-19T00:17:48.563Z,72.00
2022-08-19T00:20:20.892Z,71.80
2022-08-19T00:22:49.458Z,71.80
2022-08-19T00:25:17.807Z,72.10
2022-08-19T00:27:45.645Z,72.10
2022-08-19T00:30:13.796Z,71.80
2022-08-19T00:32:41.665Z,71.90
2022-08-19T00:35:10.750Z,72.00
2022-08-19T00:37:44.176Z,72.00
2022-08-19T00:40:13.683Z,72.00
2022-08-19T00:42:42.296Z,72.30
2022-08-19T00:45:22.008Z,72.20
2022-08-19T00:47:50.070Z,72.40
2022-08-19T00:50:21.119Z,72.50
2022-08-19T00:52:52.354Z,72.20
2022-08-19T00:55:25.880Z,72.10
2022-08-19T00:58:02.527Z,72.10
2022-08-19T01:00:32.608Z,72.60
2022-08-19T01:03:00.606Z,73.00
2022-08-19T01:05:30.249Z,73.20
2022-08-19T01:08:01.815Z,73.30
2022-08-19T01:10:36.666Z,73.20
2022-08-19T01:13:05.946Z,73.00
2022-08-19T01:15:43.139Z,72.80
2022-08-19T01:18:14.768Z,72.80
2022-08-19T01:20:44.145Z,73.00
2022-08-19T01:23:12.980Z,73.10
2022-08-19T01:25:50.931Z,73.20
2022-08-19T01:28:40.073Z,73.50
2022-08-19T01:31:27.158Z,73.80
2022-08-19T01:33:58.432Z,74.00
2022-08-19T01:36:35.065Z,74.10
2022-08-19T01:39:08.611Z,74.30
2022-08-19T01:41:36.967Z,74.40
2022-08-19T01:44:17.774Z,74.40
2022-08-19T01:46:49.515Z,74.30
2022-08-19T01:49:20.730Z,74.50
2022-08-19T01:51:50.488Z,74.50
2022-08-19T01:54:23.166Z,74.80
2022-08-19T01:57:07.744Z,75.40
2022-08-19T01:59:37.512Z,75.50
2022-08-19T02:02:09.743Z,75.30
2022-08-19T02:04:39.086Z,74.90
2022-08-19T02:07:09.147Z,75.10
2022-08-19T02:09:37.248Z,75.60
2022-08-19T02:12:08.629Z,75.70
2022-08-19T02:14:37.680Z,76.00
2022-08-19T02:17:05.589Z,76.00
2022-08-19T02:19:33.812Z,76.50
2022-08-19T02:22:01.984Z,76.70
2022-08-19T02:24:29.812Z,76.60
2022-08-19T02:26:58.328Z,76.50
2022-08-19T02:29:26.154Z,76.80
2022-08-19T02:31:54.120Z,76.70
2022-08-19T02:34:22.022Z,76.80
2022-08-19T02:36:51.743Z,77.10
2022-08-19T02:39:20.417Z,77.30
2022-08-19T02:41:48.293Z,77.80
2022-08-19T02:44:29.689Z,77.50
2022-08-19T02:47:00.359Z,77.30
2022-08-19T02:49:28.209Z,77.60
2022-08-19T02:51:56.081Z,77.80
2022-08-19T02:54:23.850Z,78.10
2022-08-19T02:56:51.649Z,78.30
2022-08-19T02:59:20.301Z,78.50
2022-08-19T03:01:50.945Z,78.70
2022-08-19T03:04:20.297Z,78.70
2022-08-19T03:06:49.492Z,78.70
2022-08-19T03:09:20.614Z,79.00
2022-08-19T03:11:48.689Z,79.00
2022-08-19T03:14:20.471Z,78.90
2022-08-19T03:16:53.389Z,78.80
2022-08-19T03:19:22.471Z,78.80
2022-08-19T03:21:51.580Z,79.20
2022-08-19T03:24:21.168Z,79.20
2022-08-19T03:26:53.574Z,79.20
2022-08-19T03:29:30.294Z,79.00
2022-08-19T03:32:02.030Z,78.90
2022-08-19T03:34:35.625Z,79.00
2022-08-19T03:37:10.569Z,78.50
2022-08-19T03:39:40.340Z,78.50
2022-08-19T03:42:38.186Z,78.50
2022-08-19T03:44:56.709Z,78.70
2022-08-19T03:47:24.512Z,79.20
2022-08-19T03:49:52.437Z,79.10
2022-08-19T03:52:20.398Z,79.30
2022-08-19T03:54:48.216Z,79.40
2022-08-19T03:57:16.022Z,79.70
2022-08-19T03:59:44.544Z,79.70
2022-08-19T04:02:13.723Z,79.90
2022-08-19T04:04:44.391Z,79.80
2022-08-19T04:07:17.131Z,79.60
2022-08-19T04:09:45.100Z,79.90
2022-08-19T04:12:12.951Z,80.00
2022-08-19T04:14:40.844Z,80.50
2022-08-19T04:17:08.732Z,80.60
2022-08-19T04:19:37.628Z,80.50
2022-08-19T04:22:06.079Z,80.70
2022-08-19T04:24:36.286Z,80.80
2022-08-19T04:27:07.137Z,80.80
2022-08-19T04:29:35.149Z,80.80
2022-08-19T04:32:09.437Z,81.30
2022-08-19T04:35:02.423Z,81.30
2022-08-19T04:37:35.058Z,81.50
2022-08-19T04:40:26.107Z,81.40
2022-08-19T04:42:54.683Z,81.50
2022-08-19T04:45:23.260Z,81.80
2022-08-19T04:47:58.399Z,82.00
2022-08-19T04:50:46.039Z,82.60
2022-08-19T04:53:13.817Z,82.90
2022-08-19T04:55:43.554Z,83.00
2022-08-19T04:58:11.376Z,83.60
2022-08-19T05:00:40.996Z,83.80
2022-08-19T05:03:09.534Z,84.10
2022-08-19T05:05:44.668Z,84.10
2022-08-19T05:08:19.511Z,84.00
2022-08-19T05:10:59.638Z,84.10
2022-08-19T05:13:28.180Z,84.40
2022-08-19T05:15:58.652Z,84.60
2022-08-19T05:18:46.240Z,85.00
2022-08-19T05:21:37.369Z,85.10
2022-08-19T05:24:10.495Z,85.60
2022-08-19T05:26:40.533Z,85.90
2022-08-19T05:29:10.281Z,85.50
2022-08-19T05:31:42.283Z,85.10
2022-08-19T05:34:20.448Z,84.80
2022-08-19T05:36:49.623Z,84.80
2022-08-19T05:39:21.504Z,85.00
2022-08-19T05:41:58.170Z,85.20
2022-08-19T05:44:32.691Z,85.10
2022-08-19T05:47:03.997Z,84.70
2022-08-19T05:49:34.053Z,84.60
2022-08-19T05:52:12.815Z,85.30
2022-08-19T05:54:42.569Z,85.10
2022-08-19T05:57:11.735Z,84.80
2022-08-19T05:59:41.221Z,85.10
2022-08-19T06:02:10.205Z,85.30
2022-08-19T06:04:38.706Z,85.30
2022-08-19T06:07:12.298Z,85.30
2022-08-19T06:09:43.772Z,85.60
2022-08-19T06:12:32.856Z,85.50
2022-08-19T06:15:02.844Z,85.50
2022-08-19T06:17:31.929Z,86.30
2022-08-19T06:20:16.256Z,85.40
2022-08-19T06:22:49.750Z,85.20
2022-08-19T06:25:18.264Z,84.90
2022-08-19T06:28:11.866Z,84.70
2022-08-19T06:30:34.591Z,84.50
2022-08-19T06:33:02.408Z,84.80
2022-08-19T06:35:30.633Z,85.20
2022-08-19T06:37:58.554Z,85.20
2022-08-19T06:40:28.485Z,84.90
2022-08-19T06:42:57.383Z,84.80
2022-08-19T06:45:35.498Z,84.70
2022-08-19T06:48:08.434Z,83.90
2022-08-19T06:50:36.842Z,83.50
2022-08-19T06:53:08.312Z,83.70
2022-08-19T06:55:36.344Z,83.50
2022-08-19T06:58:06.110Z,83.60
2022-08-19T07:00:34.834Z,83.50
2022-08-19T07:03:07.647Z,83.30
2022-08-19T07:05:45.814Z,83.20
2022-08-19T07:08:15.005Z,82.70
2022-08-19T07:10:47.543Z,82.60
2022-08-19T07:13:15.582Z,83.00
2022-08-19T07:15:43.468Z,82.80
2022-08-19T07:18:11.626Z,82.60
2022-08-19T07:20:41.963Z,82.60
2022-08-19T07:23:16.653Z,82.40
2022-08-19T07:25:51.365Z,81.80
2022-08-19T07:28:24.704Z,82.10
2022-08-19T07:30:53.923Z,82.00
2022-08-19T07:33:23.281Z,82.40
2022-08-19T07:35:51.165Z,82.20
2022-08-19T07:38:19.079Z,82.50
2022-08-19T07:40:47.078Z,82.70
2022-08-19T07:43:17.828Z,82.10
2022-08-19T07:45:47.936Z,82.10
2022-08-19T07:48:15.963Z,81.60
2022-08-19T07:50:44.289Z,81.10
2022-08-19T07:53:13.361Z,81.10
2022-08-19T07:55:43.836Z,80.50
2022-08-19T07:58:18.474Z,80.10
2022-08-19T08:00:49.552Z,80.10
2022-08-19T08:03:42.116Z,80.40
2022-08-19T08:06:30.681Z,80.10
2022-08-19T08:12:35.113Z,80.50
2022-08-19T08:15:08.996Z,80.20
2022-08-19T08:17:49.198Z,79.80
2022-08-19T08:20:20.491Z,80.10
2022-08-19T08:23:07.355Z,80.00
2022-08-19T08:25:37.239Z,79.90
2022-08-19T08:28:06.285Z,79.90
2022-08-19T08:30:36.789Z,79.50
2022-08-19T08:33:05.369Z,79.50
2022-08-19T08:35:34.391Z,79.50
2022-08-19T08:38:04.729Z,79.30
2022-08-19T08:41:00.024Z,79.60
2022-08-19T08:43:36.822Z,79.40
2022-08-19T08:46:13.219Z,79.80
2022-08-19T08:48:52.595Z,79.20
2022-08-19T08:52:03.064Z,79.40
2022-08-19T08:54:49.091Z,78.40
2022-08-19T08:57:40.889Z,78.50
2022-08-19T09:00:17.530Z,78.50
2022-08-19T09:02:50.518Z,78.20
2022-08-19T09:05:25.989Z,78.20
2022-08-19T09:08:35.345Z,78.30
2022-08-19T09:11:15.603Z,78.20
2022-08-19T09:14:06.078Z,78.20
2022-08-19T09:16:34.482Z,78.10
2022-08-19T09:19:08.137Z,77.70
2022-08-19T09:21:36.271Z,77.60
2022-08-19T09:24:07.309Z,77.60
2022-08-19T09:26:47.552Z,77.10
2022-08-19T09:29:22.692Z,76.90
2022-08-19T09:31:51.123Z,76.80
2022-08-19T09:34:22.112Z,76.40
2022-08-19T09:36:54.673Z,76.20
2022-08-19T09:39:23.432Z,75.50
2022-08-19T09:41:51.575Z,75.80
2022-08-19T09:44:23.069Z,75.80
2022-08-19T09:46:52.028Z,75.30
2022-08-19T09:49:22.877Z,75.00
2022-08-19T09:51:55.446Z,74.70
2022-08-19T09:54:25.225Z,73.90
2022-08-19T09:56:54.695Z,73.70
2022-08-19T09:59:24.429Z,73.20
2022-08-19T10:01:52.807Z,74.00
2022-08-19T10:04:22.424Z,74.10
2022-08-19T10:06:53.889Z,73.50
2022-08-19T10:09:33.570Z,73.70
2022-08-19T10:12:06.072Z,74.10
2022-08-19T10:14:34.781Z,73.90
2022-08-19T10:17:17.451Z,72.40
2022-08-19T10:19:55.020Z,72.30
2022-08-19T10:22:25.660Z,72.10
2022-08-19T10:24:54.613Z,71.90
2022-08-19T10:27:22.680Z,70.00
2022-08-19T10:29:50.593Z,70.30
2022-08-19T10:32:18.466Z,70.50
2022-08-19T10:35:05.326Z,69.60
2022-08-19T10:37:34.003Z,69.50
2022-08-19T10:40:05.177Z,68.80
2022-08-19T10:42:33.370Z,68.10
2022-08-19T10:45:01.475Z,67.50
2022-08-19T10:47:31.864Z,67.40
2022-08-19T10:50:18.379Z,65.90
2022-08-19T10:52:50.765Z,64.50
2022-08-19T10:55:41.872Z,63.70
2022-08-19T10:58:24.804Z,62.80
2022-08-19T11:00:56.485Z,60.80
2022-08-19T11:03:26.632Z,60.20
2022-08-19T11:06:07.062Z,59.70
2022-08-19T11:08:38.674Z,59.70
2022-08-19T11:11:09.087Z,60.20
2022-08-19T11:13:42.636Z,59.50
2022-08-19T11:16:14.868Z,59.70
2022-08-19T11:18:48.035Z,58.90
2022-08-19T11:21:25.285Z,58.20
2022-08-19T11:23:57.706Z,59.40
2022-08-19T11:26:26.741Z,59.10
2022-08-19T11:28:56.529Z,58.70
2022-08-19T11:31:32.122Z,57.30
2022-08-19T11:34:04.085Z,56.10
2022-08-19T11:36:34.351Z,56.20
2022-08-19T11:39:06.517Z,56.80
2022-08-19T11:41:34.806Z,56.60
2022-08-19T11:44:04.258Z,56.80
2022-08-19T11:46:33.069Z,56.50
2022-08-19T11:49:03.968Z,56.80
2022-08-19T11:51:33.402Z,57.00
2022-08-19T11:54:02.427Z,55.90
2022-08-19T11:56:30.384Z,56.80
2022-08-19T11:58:58.579Z,56.30
2022-08-19T12:01:28.205Z,56.40
2022-08-19T12:03:57.804Z,55.80
2022-08-19T12:06:31.152Z,55.80
2022-08-19T12:09:07.231Z,55.50
2022-08-19T12:11:35.273Z,53.40
2022-08-19T12:14:03.679Z,53.10
2022-08-19T12:16:33.697Z,53.70
2022-08-19T12:19:05.225Z,54.30
2022-08-19T12:21:36.468Z,54.20
2022-08-19T12:24:07.318Z,53.80
2022-08-19T12:26:53.488Z,53.10
2022-08-19T12:29:29.020Z,52.40
2022-08-19T12:32:03.809Z,52.40
2022-08-19T12:34:33.336Z,51.10
2022-08-19T12:37:05.616Z,51.50
2022-08-19T12:39:40.066Z,51.70
2022-08-19T12:42:09.742Z,51.60
2022-08-19T12:44:41.630Z,51.30
2022-08-19T12:47:12.062Z,50.20
2022-08-19T12:49:54.963Z,49.20
2022-08-19T12:52:28.088Z,49.50
2022-08-19T12:54:58.281Z,49.10
2022-08-19T12:57:32.857Z,48.60
2022-08-19T13:00:13.578Z,47.80
2022-08-19T13:02:45.207Z,48.30
2022-08-19T13:05:21.859Z,47.40
2022-08-19T13:07:53.296Z,46.90
2022-08-19T13:10:23.037Z,47.70
2022-08-19T13:12:52.878Z,47.20
2022-08-19T13:15:24.000Z,47.00
2022-08-19T13:17:57.123Z,47.80
2022-08-19T13:20:25.925Z,48.10
2022-08-19T13:22:54.121Z,48.10
2022-08-19T13:25:22.553Z,48.30
2022-08-19T13:27:51.810Z,47.50
2022-08-19T13:30:39.678Z,47.40
2022-08-19T13:33:11.896Z,47.10
2022-08-19T13:35:58.127Z,45.50
2022-08-19T13:38:26.531Z,44.40
2022-08-19T13:40:56.269Z,44.80
2022-08-19T13:43:27.920Z,45.00
2022-08-19T13:45:57.607Z,45.10
2022-08-19T13:48:27.946Z,46.00
2022-08-19T13:50:56.709Z,46.30
2022-08-19T13:53:25.619Z,46.20
2022-08-19T13:55:54.694Z,45.80
2022-08-19T13:58:23.714Z,45.80
2022-08-19T14:00:51.680Z,45.80
2022-08-19T14:03:19.496Z,44.80
2022-08-19T14:05:47.771Z,45.50
2022-08-19T14:08:15.923Z,44.30
2022-08-19T14:10:45.734Z,45.30
2022-08-19T14:13:19.508Z,44.30
2022-08-19T14:15:48.466Z,43.90
2022-08-19T14:18:20.462Z,43.70
2022-08-19T14:20:48.451Z,42.90
2022-08-19T14:23:16.259Z,42.90
2022-08-19T14:25:44.466Z,42.70
2022-08-19T14:28:12.241Z,42.40
2022-08-19T14:30:40.202Z,42.60
2022-08-19T14:33:09.491Z,42.30
2022-08-19T14:35:38.049Z,41.40
2022-08-19T14:38:07.726Z,43.30
2022-08-19T14:40:35.789Z,42.90
2022-08-19T14:43:05.538Z,42.70
2022-08-19T14:45:37.319Z,42.90
2022-08-19T14:48:12.585Z,42.30
2022-08-19T14:50:47.511Z,41.80
2022-08-19T14:53:17.888Z,41.60
2022-08-19T14:55:47.356Z,42.00
2022-08-19T14:58:29.042Z,41.60
2022-08-19T15:01:01.083Z,41.40
2022-08-19T15:03:30.374Z,38.00
2022-08-19T15:06:00.091Z,38.50
2022-08-19T15:08:30.579Z,39.10
2022-08-19T15:10:59.870Z,39.30
2022-08-19T15:13:29.945Z,39.00
2022-08-19T15:15:58.197Z,39.30
2022-08-19T15:18:26.210Z,39.60
2022-08-19T15:20:55.977Z,38.80
2022-08-19T15:23:32.683Z,39.10
2022-08-19T15:26:00.425Z,38.80
2022-08-19T15:28:28.336Z,38.20
2022-08-19T15:30:56.116Z,38.70
2022-08-19T15:33:23.945Z,38.50
2022-08-19T15:35:52.224Z,38.40
2022-08-19T15:38:24.485Z,37.10
2022-08-19T15:40:52.410Z,37.50
2022-08-19T15:43:24.190Z,37.60
2022-08-19T15:45:51.964Z,38.60
2022-08-19T15:48:19.765Z,37.10
2022-08-19T15:50:47.549Z,36.70
2022-08-19T15:53:16.050Z,36.70
2022-08-19T15:55:46.209Z,36.70
2022-08-19T15:58:34.089Z,37.10
2022-08-19T16:01:26.976Z,36.70
2022-08-19T16:04:16.288Z,36.90
2022-08-19T16:06:57.093Z,37.10
2022-08-19T16:09:29.792Z,36.70
2022-08-19T16:12:02.381Z,37.40
2022-08-19T16:14:33.463Z,37.30
2022-08-19T16:17:02.060Z,37.70
2022-08-19T16:19:31.044Z,37.90
2022-08-19T16:21:58.872Z,38.00
2022-08-19T16:24:28.545Z,38.00
2022-08-19T16:26:56.966Z,37.80
2022-08-19T16:29:34.572Z,37.80
2022-08-19T16:32:11.902Z,38.70
2022-08-19T16:34:41.832Z,38.60
2022-08-19T16:37:10.700Z,38.60
2022-08-19T16:39:39.409Z,38.70
2022-08-19T16:42:11.661Z,38.80
2022-08-19T16:44:45.772Z,39.00
2022-08-19T16:47:16.386Z,38.80
2022-08-19T16:49:53.438Z,39.10
2022-08-19T16:52:26.325Z,42.50
2022-08-19T16:54:54.895Z,48.00
2022-08-19T16:57:23.939Z,51.40
2022-08-19T16:59:52.561Z,53.20
2022-08-19T17:02:23.318Z,54.80
2022-08-19T17:04:57.421Z,55.50
2022-08-19T17:07:32.287Z,56.40
2022-08-19T17:10:04.782Z,57.40
2022-08-19T17:12:32.682Z,56.60
2022-08-19T17:15:08.216Z,55.80
2022-08-19T17:17:37.398Z,56.10
2022-08-19T17:20:07.437Z,56.30
2022-08-19T17:22:37.131Z,56.80
2022-08-19T17:25:05.373Z,57.40
2022-08-19T17:27:33.215Z,57.90
2022-08-19T17:30:06.811Z,58.50
2022-08-19T17:32:35.151Z,60.20
2022-08-19T17:35:04.842Z,59.80
2022-08-19T17:37:34.564Z,60.30
2022-08-19T17:40:08.985Z,60.80
2022-08-19T17:42:36.934Z,61.90
2022-08-19T17:45:06.575Z,60.90
2022-08-19T17:47:36.695Z,61.20
2022-08-19T17:50:12.840Z,61.00
2022-08-19T17:52:40.648Z,62.00
2022-08-19T17:55:10.386Z,61.10
2022-08-19T17:57:46.065Z,61.60
2022-08-19T18:00:17.064Z,61.80
2022-08-19T18:02:52.327Z,62.20
2022-08-19T18:05:29.700Z,62.30
2022-08-19T18:07:59.872Z,62.60
2022-08-19T18:10:34.909Z,62.80
2022-08-19T18:13:10.830Z,63.80
2022-08-19T18:15:45.885Z,63.80
2022-08-19T18:18:14.991Z,64.20
2022-08-19T18:20:44.604Z,64.30
2022-08-19T18:23:41.225Z,64.80
2022-08-19T18:26:02.330Z,65.00
2022-08-19T18:28:31.107Z,65.60
2022-08-19T18:30:59.273Z,66.10
2022-08-19T18:33:27.227Z,66.50
2022-08-19T18:35:55.304Z,67.10
2022-08-19T18:38:42.095Z,67.20
2022-08-19T18:41:29.631Z,67.50
2022-08-19T18:44:16.151Z,67.70
2022-08-19T18:47:02.811Z,68.10
2022-08-19T18:49:34.769Z,68.80
2022-08-19T18:52:03.663Z,68.40
2022-08-19T18:54:31.450Z,68.70
2022-08-19T18:56:59.473Z,68.40
2022-08-19T18:59:29.346Z,67.50
2022-08-19T19:01:59.537Z,66.80
2022-08-19T19:04:34.191Z,67.30
2022-08-19T19:07:01.969Z,67.50
2022-08-19T19:09:29.941Z,63.00
2022-08-19T19:12:03.058Z,59.80
2022-08-19T19:14:50.446Z,58.60
2022-08-19T19:17:18.658Z,57.50
2022-08-19T19:19:46.516Z,58.30
2022-08-19T19:22:23.709Z,56.50
2022-08-19T19:24:54.126Z,55.30
2022-08-19T19:27:22.730Z,55.50
2022-08-19T19:29:52.568Z,55.80
2022-08-19T19:32:29.453Z,55.50
2022-08-19T19:34:57.447Z,53.30
2022-08-19T19:37:25.333Z,54.60
2022-08-19T19:39:53.209Z,53.90
2022-08-19T19:42:27.212Z,53.90
2022-08-19T19:44:56.281Z,52.30
2022-08-19T19:47:25.688Z,52.70
2022-08-19T19:52:46.063Z,52.50
2022-08-19T19:55:18.442Z,51.90
2022-08-19T19:57:48.821Z,51.60
2022-08-19T20:00:18.902Z,51.10
2022-08-19T20:02:50.165Z,51.30
2022-08-19T20:05:23.085Z,50.80
2022-08-19T20:08:12.520Z,50.30
2022-08-19T20:10:42.982Z,51.00
2022-08-19T20:13:15.546Z,50.80
2022-08-19T20:15:43.740Z,50.50
2022-08-19T20:18:14.600Z,50.40
2022-08-19T20:20:43.607Z,50.00
2022-08-19T20:23:11.415Z,49.50
2022-08-19T20:25:39.720Z,49.90
2022-08-19T20:28:07.560Z,50.20
2022-08-19T20:30:35.477Z,49.90
2022-08-19T20:33:06.910Z,49.70
2022-08-19T20:35:36.911Z,49.60
2022-08-19T20:38:06.580Z,49.80
2022-08-19T20:40:35.924Z,49.60
2022-08-19T20:43:09.360Z,50.00
2022-08-19T20:45:38.119Z,49.70
2022-08-19T20:48:08.092Z,50.40
2022-08-19T20:50:37.220Z,50.60
2022-08-19T20:53:17.067Z,50.80
2022-08-19T20:55:49.293Z,51.10
2022-08-19T20:58:21.251Z,51.30
2022-08-19T21:00:50.716Z,51.40
2022-08-19T21:03:24.568Z,51.80
2022-08-19T21:05:52.861Z,52.10
2022-08-19T21:08:20.875Z,52.50
2022-08-19T21:10:52.080Z,53.00
2022-08-19T21:13:21.228Z,53.60
2022-08-19T21:15:49.723Z,53.90
2022-08-19T21:18:20.724Z,54.30
2022-08-19T21:20:50.175Z,54.70
2022-08-19T21:23:22.391Z,55.60
2022-08-19T21:25:54.562Z,55.80
2022-08-19T21:28:35.066Z,56.30
2022-08-19T21:31:06.708Z,57.10
2022-08-19T21:33:34.556Z,57.50
2022-08-19T21:36:03.109Z,58.70
2022-08-19T21:38:31.389Z,58.20
2022-08-19T21:41:00.976Z,58.60
2022-08-19T21:43:35.826Z,59.30
2022-08-19T21:46:04.205Z,59.60
2022-08-19T21:48:32.405Z,60.10
2022-08-19T21:51:00.188Z,60.80
2022-08-19T21:53:31.697Z,60.70
2022-08-19T21:56:06.455Z,60.70
2022-08-19T21:58:36.520Z,60.40
2022-08-19T22:01:07.888Z,60.70
2022-08-19T22:03:37.651Z,61.30
2022-08-19T22:06:06.825Z,61.80
2022-08-19T22:08:34.615Z,62.30
2022-08-19T22:11:04.350Z,62.00
2022-08-19T22:13:40.105Z,61.50
2022-08-19T22:16:10.041Z,61.50
2022-08-19T22:18:38.048Z,61.20
2022-08-19T22:21:11.234Z,61.60
2022-08-19T22:23:44.407Z,61.50
2022-08-19T22:26:17.155Z,62.00
2022-08-19T22:28:45.108Z,61.80
2022-08-19T22:31:15.644Z,62.30
2022-08-19T22:33:43.912Z,62.50
2022-08-19T22:36:11.825Z,62.00
2022-08-19T22:38:39.971Z,62.60
2022-08-19T22:41:08.199Z,63.50
2022-08-19T22:43:37.567Z,63.90
2022-08-19T22:46:06.581Z,63.70
2022-08-19T22:48:46.237Z,64.70
2022-08-19T22:51:34.105Z,65.20
2022-08-19T22:54:03.186Z,65.00
2022-08-19T22:56:31.067Z,65.40
2022-08-19T22:58:58.965Z,65.80
2022-08-19T23:01:30.228Z,65.40
2022-08-19T23:03:59.693Z,65.80
2022-08-19T23:06:33.451Z,66.10
2022-08-19T23:09:05.352Z,66.20
2022-08-19T23:11:42.106Z,67.00
2022-08-19T23:14:12.567Z,66.90
2022-08-19T23:16:41.862Z,66.80
2022-08-19T23:19:10.530Z,66.60
2022-08-19T23:21:42.720Z,66.70
2022-08-19T23:24:11.440Z,67.70
2022-08-19T23:26:59.938Z,68.20
2022-08-19T23:29:47.318Z,68.40
2022-08-19T23:32:19.001Z,69.00
2022-08-19T23:34:47.277Z,69.20
2022-08-19T23:37:15.721Z,70.30
2022-08-19T23:39:44.609Z,70.50
2022-08-19T23:42:13.641Z,70.70
2022-08-19T23:44:52.281Z,70.30
2022-08-19T23:47:21.480Z,71.10
2022-08-19T23:49:49.478Z,71.70
2022-08-19T23:52:17.286Z,71.10
2022-08-19T23:54:45.112Z,71.20
2022-08-19T23:57:14.626Z,71.40
2022-08-19T23:59:45.605Z,71.20
